Main page
Satellite images 10-day forecastsClimateMarine weather Cyclones Lightning AirportsFAQ Newsletter About
Weather : Europe Africa North America South America Asia Australia-Oceania Others
Languages Contact

Birmingham, England

latitude: 52-27N, longitude: 001-44W, elevation: 99 m


METAR: EGBB 010820Z 31020KT 9999 BKN038 03/M02 Q0999
TAF: EGBB 010501Z 0106/0206 31017KT 9999 SCT030 TEMPO 0106/0115 32020G30KT BECMG 0115/0118 32007KT

Time: 08:36 (08:36 UTC)

Current weather observation

The report was made 16 minutes ago, at 08:20 UTC
Wind 20 kt from the Northwest
Temperature 3°C
Humidity 70%
Pressure 999 hPa
Visibility 10 km or more
Broken clouds at a height of 3800 ft

Change units

Forecast

The report was made 3 hours and 35 minutes ago, at 05:01 UTC
Forecast valid from 01 at 06 UTC to 02 at 06 UTC
Wind 17 kt from the Northwest
Visibility 10 km or more
Scattered clouds at a height of 3000 ft
Temporary
from 01 at 06 UTC to 01 at 15 UTC
Wind 20 kt from the Northwest with gusts up to 30 kt
Becoming
from 01 at 15 UTC to 01 at 18 UTC
Wind 7 kt from the Northwest
The information on this site is subject to a disclaimer
Weather : Europe Africa North America South America Asia Australia-Oceania Others
Satellite images 10-day forecastsClimateMarine weather Cyclones Lightning AirportsFAQ Languages Contact Newsletter About